createdAt,value
2017-10-26T00:01:37.674Z,12.30
2017-10-26T00:04:05.308Z,12.30
2017-10-26T00:06:32.841Z,12.20
2017-10-26T00:09:00.407Z,12.20
2017-10-26T00:11:27.953Z,12.20
2017-10-26T00:13:55.554Z,12.20
2017-10-26T00:16:23.873Z,12.20
2017-10-26T00:18:51.437Z,12.10
2017-10-26T00:21:19.014Z,12.20
2017-10-26T00:23:46.558Z,12.20
2017-10-26T00:26:14.124Z,12.30
2017-10-26T00:28:41.702Z,12.30
2017-10-26T00:31:09.267Z,12.30
2017-10-26T00:33:36.803Z,12.40
2017-10-26T00:36:04.347Z,12.50
2017-10-26T00:38:31.931Z,12.50
2017-10-26T00:40:59.503Z,12.50
2017-10-26T00:43:27.067Z,12.60
2017-10-26T00:45:54.634Z,12.60
2017-10-26T00:48:23.889Z,12.60
2017-10-26T00:50:52.486Z,12.70
2017-10-26T00:53:25.587Z,12.70
2017-10-26T00:55:53.611Z,12.60
2017-10-26T00:58:22.597Z,12.70
2017-10-26T01:00:51.210Z,12.70
2017-10-26T01:03:18.870Z,12.60
2017-10-26T01:05:49.189Z,12.60
2017-10-26T01:08:16.935Z,12.60
2017-10-26T01:10:45.383Z,12.60
2017-10-26T01:13:13.404Z,12.60
2017-10-26T01:15:41.178Z,12.60
2017-10-26T01:18:09.673Z,12.60
2017-10-26T01:20:37.631Z,12.50
2017-10-26T01:23:06.564Z,12.60
2017-10-26T01:25:34.303Z,12.70
2017-10-26T01:28:03.942Z,12.70
2017-10-26T01:30:33.393Z,12.70
2017-10-26T01:33:01.195Z,12.60
2017-10-26T01:35:29.016Z,12.70
2017-10-26T01:37:59.731Z,12.70
2017-10-26T01:40:28.336Z,12.70
2017-10-26T01:42:57.648Z,12.70
2017-10-26T01:45:25.352Z,12.60
2017-10-26T01:47:52.937Z,12.70
2017-10-26T01:50:20.524Z,12.70
2017-10-26T01:52:48.073Z,12.70
2017-10-26T01:55:15.684Z,12.80
2017-10-26T01:57:43.242Z,12.70
2017-10-26T02:00:10.838Z,12.70
2017-10-26T02:02:38.382Z,12.70
2017-10-26T02:05:05.970Z,12.70
2017-10-26T02:07:33.512Z,12.60
2017-10-26T02:10:01.073Z,12.60
2017-10-26T02:12:28.658Z,12.50
2017-10-26T02:14:57.005Z,12.50
2017-10-26T02:17:24.626Z,12.50
2017-10-26T02:19:52.930Z,12.50
2017-10-26T02:22:20.487Z,12.40
2017-10-26T02:24:48.029Z,12.50
2017-10-26T02:27:16.346Z,12.40
2017-10-26T02:29:55.739Z,12.30
2017-10-26T02:32:24.098Z,12.30
2017-10-26T02:34:52.439Z,12.30
2017-10-26T02:37:19.996Z,12.20
2017-10-26T02:39:47.553Z,12.30
2017-10-26T02:42:15.087Z,12.30
2017-10-26T02:44:43.426Z,12.20
2017-10-26T02:47:10.969Z,12.20
2017-10-26T02:49:38.542Z,12.20
2017-10-26T02:52:06.095Z,12.20
2017-10-26T02:54:33.669Z,12.20
2017-10-26T02:57:01.215Z,12.10
2017-10-26T02:59:28.832Z,12.10
2017-10-26T03:01:56.453Z,12.10
2017-10-26T03:04:24.095Z,12.10
2017-10-26T03:06:51.660Z,12.10
2017-10-26T03:09:19.190Z,12.10
2017-10-26T03:11:46.750Z,12.10
2017-10-26T03:14:14.375Z,12.20
2017-10-26T03:16:41.935Z,12.10
2017-10-26T03:19:09.526Z,12.10
2017-10-26T03:21:37.090Z,12.10
2017-10-26T03:24:04.633Z,12.00
2017-10-26T03:26:32.982Z,12.00
2017-10-26T03:29:00.521Z,11.90
2017-10-26T03:31:28.049Z,12.00
2017-10-26T03:33:55.616Z,12.00
2017-10-26T03:36:23.138Z,12.00
2017-10-26T03:38:51.464Z,12.00
2017-10-26T03:41:19.013Z,12.00
2017-10-26T03:43:46.611Z,12.00
2017-10-26T03:46:14.219Z,12.10
2017-10-26T03:48:42.602Z,12.20
2017-10-26T03:51:10.189Z,12.10
2017-10-26T03:53:37.756Z,12.30
2017-10-26T03:56:05.314Z,12.20
2017-10-26T03:58:32.836Z,12.20
2017-10-26T04:01:01.171Z,12.30
2017-10-26T04:03:28.713Z,12.20
2017-10-26T04:05:56.366Z,12.30
2017-10-26T04:08:23.904Z,12.40
2017-10-26T04:13:23.965Z,12.50
2017-10-26T04:15:51.526Z,12.40
2017-10-26T04:18:19.101Z,12.50
2017-10-26T04:20:46.658Z,12.50
2017-10-26T04:23:14.270Z,12.50
2017-10-26T04:25:42.595Z,12.60
2017-10-26T04:28:10.252Z,12.50
2017-10-26T04:30:37.822Z,12.60
2017-10-26T04:33:05.402Z,12.60
2017-10-26T04:35:32.976Z,12.70
2017-10-26T04:38:00.614Z,12.70
2017-10-26T04:40:28.181Z,12.80
2017-10-26T04:42:55.768Z,12.80
2017-10-26T04:45:23.298Z,12.70
2017-10-26T04:47:50.820Z,12.60
2017-10-26T04:50:18.388Z,12.60
2017-10-26T04:52:45.942Z,12.50
2017-10-26T04:55:13.481Z,12.30
2017-10-26T04:57:41.894Z,12.10
2017-10-26T05:00:34.982Z,12.00
2017-10-26T05:03:03.334Z,12.00
2017-10-26T05:05:31.198Z,11.90
2017-10-26T05:07:59.068Z,11.90
2017-10-26T05:13:35.172Z,11.80
2017-10-26T05:16:06.084Z,11.80
2017-10-26T05:21:36.387Z,11.70
2017-10-26T05:24:03.921Z,11.70
2017-10-26T05:26:41.395Z,11.70
2017-10-26T05:29:08.947Z,11.70
2017-10-26T05:31:36.465Z,11.60
2017-10-26T05:34:04.013Z,11.60
2017-10-26T05:36:32.320Z,11.60
2017-10-26T05:38:59.917Z,11.50
2017-10-26T05:41:27.452Z,11.60
2017-10-26T05:43:55.009Z,11.60
2017-10-26T05:46:22.532Z,11.50
2017-10-26T05:48:50.825Z,11.50
2017-10-26T05:51:18.328Z,11.30
2017-10-26T05:53:45.861Z,11.40
2017-10-26T05:56:13.427Z,11.40
2017-10-26T05:58:40.969Z,11.40
2017-10-26T06:01:08.508Z,11.30
2017-10-26T06:03:36.065Z,11.30
2017-10-26T06:06:03.624Z,11.30
2017-10-26T06:08:31.160Z,11.40
2017-10-26T06:10:59.471Z,11.40
2017-10-26T06:13:27.072Z,11.30
2017-10-26T06:15:54.613Z,11.40
2017-10-26T06:18:22.157Z,11.40
2017-10-26T06:20:49.695Z,11.30
2017-10-26T06:23:17.248Z,11.40
2017-10-26T06:25:52.866Z,11.40
2017-10-26T06:28:20.407Z,11.50
2017-10-26T06:30:48.011Z,11.60
2017-10-26T06:33:16.320Z,11.70
2017-10-26T06:35:43.871Z,11.60
2017-10-26T06:38:11.405Z,11.70
2017-10-26T06:40:39.714Z,12.00
2017-10-26T06:43:07.237Z,11.90
2017-10-26T06:45:35.582Z,12.00
2017-10-26T06:48:03.089Z,11.90
2017-10-26T06:50:30.653Z,12.00
2017-10-26T06:52:58.185Z,12.10
2017-10-26T06:55:25.724Z,12.10
2017-10-26T06:57:53.274Z,12.00
2017-10-26T07:00:20.802Z,12.00
2017-10-26T07:02:58.033Z,12.10
2017-10-26T07:05:25.582Z,12.20
2017-10-26T07:07:53.134Z,12.10
2017-10-26T07:10:20.673Z,12.10
2017-10-26T07:12:48.222Z,12.20
2017-10-26T07:15:15.766Z,12.20
2017-10-26T07:17:43.315Z,12.20
2017-10-26T07:20:10.866Z,12.20
2017-10-26T07:22:39.174Z,12.40
2017-10-26T07:25:06.725Z,12.30
2017-10-26T07:27:34.253Z,12.50
2017-10-26T07:30:02.573Z,12.40
2017-10-26T07:32:30.110Z,12.30
2017-10-26T07:34:57.661Z,12.40
2017-10-26T07:37:25.978Z,12.50
2017-10-26T07:39:53.531Z,12.40
2017-10-26T07:42:21.069Z,12.60
2017-10-26T07:44:48.615Z,12.60
2017-10-26T07:47:16.178Z,12.50
2017-10-26T07:49:43.711Z,12.50
2017-10-26T07:52:11.295Z,12.50
2017-10-26T07:54:38.846Z,12.50
2017-10-26T07:57:06.399Z,12.60
2017-10-26T07:59:34.697Z,12.70
2017-10-26T08:02:02.227Z,12.60
2017-10-26T08:04:29.765Z,12.60
2017-10-26T08:06:57.285Z,12.70
2017-10-26T08:09:24.858Z,12.80
2017-10-26T08:11:52.383Z,12.90
2017-10-26T08:14:19.938Z,12.90
2017-10-26T08:16:48.231Z,13.20
2017-10-26T08:19:15.793Z,13.10
2017-10-26T08:21:43.318Z,13.30
2017-10-26T08:24:11.626Z,13.50
2017-10-26T08:26:39.186Z,13.50
2017-10-26T08:29:06.717Z,13.60
2017-10-26T08:31:44.654Z,13.60
2017-10-26T08:34:12.181Z,13.50
2017-10-26T08:36:40.492Z,13.70
2017-10-26T08:39:08.017Z,13.70
2017-10-26T08:41:35.595Z,13.80
2017-10-26T08:44:03.129Z,13.80
2017-10-26T08:46:31.424Z,13.90
2017-10-26T08:48:58.964Z,13.80
2017-10-26T08:51:27.261Z,13.80
2017-10-26T08:53:55.750Z,13.80
2017-10-26T08:56:23.301Z,13.90
2017-10-26T08:58:50.856Z,14.00
2017-10-26T09:01:18.374Z,14.10
2017-10-26T09:03:45.892Z,14.10
2017-10-26T09:06:13.433Z,14.20
2017-10-26T09:08:40.969Z,14.20
2017-10-26T09:11:09.292Z,14.20
2017-10-26T09:13:36.826Z,14.10
2017-10-26T09:16:04.370Z,14.20
2017-10-26T09:18:32.645Z,14.40
2017-10-26T09:21:00.943Z,14.40
2017-10-26T09:23:28.483Z,14.30
2017-10-26T09:25:56.763Z,14.50
2017-10-26T09:28:24.325Z,14.50
2017-10-26T09:30:52.610Z,14.60
2017-10-26T09:33:25.685Z,14.50
2017-10-26T09:35:53.973Z,14.60
2017-10-26T09:38:21.514Z,14.50
2017-10-26T09:40:49.807Z,14.70
2017-10-26T09:43:17.365Z,14.60
2017-10-26T09:45:44.920Z,14.70
2017-10-26T09:48:12.436Z,14.70
2017-10-26T09:50:39.990Z,14.70
2017-10-26T09:53:07.532Z,14.80
2017-10-26T09:55:35.065Z,14.90
2017-10-26T09:58:02.610Z,14.90
2017-10-26T10:00:30.990Z,14.90
2017-10-26T10:02:59.264Z,14.90
2017-10-26T10:05:27.650Z,15.00
2017-10-26T10:07:55.170Z,14.90
2017-10-26T10:10:22.686Z,15.00
2017-10-26T10:12:50.221Z,15.10
2017-10-26T10:15:18.518Z,15.20
2017-10-26T10:17:46.060Z,15.10
2017-10-26T10:20:13.627Z,15.20
2017-10-26T10:22:41.186Z,15.30
2017-10-26T10:25:08.710Z,15.30
2017-10-26T10:27:36.285Z,15.30
2017-10-26T10:30:04.561Z,15.30
2017-10-26T10:32:33.030Z,15.40
2017-10-26T10:35:01.333Z,15.40
2017-10-26T10:37:28.863Z,15.40
2017-10-26T10:39:56.418Z,15.40
2017-10-26T10:42:23.934Z,15.60
2017-10-26T10:44:51.546Z,15.60
2017-10-26T10:47:19.840Z,15.70
2017-10-26T10:49:47.386Z,15.60
2017-10-26T10:52:15.689Z,15.80
2017-10-26T10:54:43.230Z,15.70
2017-10-26T10:57:11.613Z,16.00
2017-10-26T10:59:44.700Z,15.90
2017-10-26T11:02:12.254Z,16.00
2017-10-26T11:04:40.541Z,16.10
2017-10-26T11:07:08.085Z,16.00
2017-10-26T11:09:36.383Z,16.20
2017-10-26T11:12:03.934Z,16.10
2017-10-26T11:14:31.463Z,16.20
2017-10-26T11:16:59.007Z,16.20
2017-10-26T11:19:26.518Z,16.20
2017-10-26T11:21:54.057Z,16.20
2017-10-26T11:24:21.602Z,16.30
2017-10-26T11:26:49.905Z,16.30
2017-10-26T11:29:17.436Z,16.20
2017-10-26T11:31:44.941Z,16.30
2017-10-26T11:34:12.500Z,16.30
2017-10-26T11:36:40.022Z,16.30
2017-10-26T11:39:07.569Z,16.30
2017-10-26T11:41:35.080Z,16.40
2017-10-26T11:44:02.620Z,16.40
2017-10-26T11:46:30.139Z,16.40
2017-10-26T11:48:57.668Z,16.40
2017-10-26T11:51:25.206Z,16.40
2017-10-26T11:53:52.738Z,16.40
2017-10-26T11:56:21.055Z,16.60
2017-10-26T11:58:48.572Z,16.50
2017-10-26T12:01:16.878Z,16.60
2017-10-26T12:03:45.323Z,16.50
2017-10-26T12:06:13.629Z,16.70
2017-10-26T12:08:41.172Z,16.60
2017-10-26T12:11:08.702Z,16.70
2017-10-26T12:13:36.299Z,16.70
2017-10-26T12:16:03.816Z,16.70
2017-10-26T12:18:31.345Z,16.70
2017-10-26T12:20:58.997Z,16.70
2017-10-26T12:23:26.540Z,16.70
2017-10-26T12:25:54.077Z,16.80
2017-10-26T12:28:22.446Z,16.80
2017-10-26T12:30:50.748Z,16.90
2017-10-26T12:33:18.265Z,16.80
2017-10-26T12:35:45.813Z,16.90
2017-10-26T12:38:13.339Z,17.00
2017-10-26T12:40:40.886Z,17.00
2017-10-26T12:43:08.433Z,17.00
2017-10-26T12:45:36.021Z,17.00
2017-10-26T12:48:03.552Z,17.00
2017-10-26T12:50:31.105Z,16.80
2017-10-26T12:52:59.397Z,16.60
2017-10-26T12:55:27.858Z,16.50
2017-10-26T12:57:55.393Z,16.60
2017-10-26T13:00:22.920Z,16.60
2017-10-26T13:02:50.459Z,16.70
2017-10-26T13:05:17.974Z,16.80
2017-10-26T13:07:45.518Z,16.90
2017-10-26T13:10:13.027Z,16.90
2017-10-26T13:12:40.579Z,16.90
2017-10-26T13:15:08.106Z,16.90
2017-10-26T13:17:36.434Z,16.80
2017-10-26T13:20:03.947Z,16.70
2017-10-26T13:22:32.239Z,16.70
2017-10-26T13:25:00.529Z,16.70
2017-10-26T13:27:28.039Z,16.60
2017-10-26T13:29:55.585Z,16.70
2017-10-26T13:32:23.114Z,16.70
2017-10-26T13:34:50.642Z,16.60
2017-10-26T13:37:18.937Z,16.60
2017-10-26T13:39:46.495Z,16.50
2017-10-26T13:42:14.014Z,16.60
2017-10-26T13:44:41.553Z,16.60
2017-10-26T13:47:09.102Z,16.60
2017-10-26T13:49:36.625Z,16.70
2017-10-26T13:52:04.935Z,16.60
2017-10-26T13:54:32.466Z,16.60
2017-10-26T13:57:00.014Z,16.60
2017-10-26T13:59:27.546Z,16.60
2017-10-26T14:01:55.085Z,16.80
2017-10-26T14:04:22.609Z,16.90
2017-10-26T14:06:50.156Z,16.80
2017-10-26T14:09:17.680Z,16.80
2017-10-26T14:11:45.210Z,16.80
2017-10-26T14:14:13.674Z,16.80
2017-10-26T14:16:41.216Z,16.70
2017-10-26T14:19:08.779Z,16.70
2017-10-26T14:21:36.305Z,16.70
2017-10-26T14:24:04.761Z,16.70
2017-10-26T14:26:32.313Z,16.70
2017-10-26T14:28:59.862Z,16.70
2017-10-26T14:31:27.438Z,16.80
2017-10-26T14:33:54.992Z,16.80
2017-10-26T14:36:22.505Z,16.80
2017-10-26T14:38:50.038Z,16.80
2017-10-26T14:41:18.349Z,16.60
2017-10-26T14:43:45.896Z,16.50
2017-10-26T14:46:13.425Z,16.60
2017-10-26T14:48:41.058Z,16.60
2017-10-26T14:51:09.349Z,16.60
2017-10-26T14:53:36.864Z,16.50
2017-10-26T14:56:04.404Z,16.60
2017-10-26T14:58:31.913Z,16.50
2017-10-26T15:01:00.206Z,16.50
2017-10-26T15:03:27.763Z,16.40
2017-10-26T15:05:55.285Z,16.50
2017-10-26T15:08:22.843Z,16.50
2017-10-26T15:10:50.366Z,16.40
2017-10-26T15:13:17.986Z,16.30
2017-10-26T15:15:46.364Z,16.20
2017-10-26T15:18:13.947Z,16.10
2017-10-26T15:20:41.509Z,16.10
2017-10-26T15:23:09.122Z,16.10
2017-10-26T15:25:36.657Z,16.00
2017-10-26T15:28:04.178Z,15.90
2017-10-26T15:30:32.472Z,15.80
2017-10-26T15:32:59.988Z,15.70
2017-10-26T15:35:27.582Z,15.70
2017-10-26T15:37:55.896Z,15.50
2017-10-26T15:40:23.423Z,15.40
2017-10-26T15:42:51.709Z,15.30
2017-10-26T15:45:19.237Z,15.30
2017-10-26T15:47:47.270Z,15.30
2017-10-26T15:50:14.849Z,15.20
2017-10-26T15:52:42.391Z,15.20
2017-10-26T15:55:10.934Z,15.10
2017-10-26T15:57:40.187Z,15.10
2017-10-26T16:00:07.848Z,14.90
2017-10-26T16:02:37.140Z,14.90
2017-10-26T16:05:05.559Z,14.80
2017-10-26T16:08:02.107Z,14.80
2017-10-26T16:10:46.041Z,14.70
2017-10-26T16:16:00.309Z,14.50
2017-10-26T16:18:27.908Z,14.40
2017-10-26T16:20:58.140Z,14.30
2017-10-26T16:23:25.763Z,14.30
2017-10-26T16:26:04.454Z,14.20
2017-10-26T16:28:32.840Z,14.10
2017-10-26T16:37:16.766Z,13.90
2017-10-26T16:39:44.315Z,13.80
2017-10-26T16:42:21.746Z,13.80
2017-10-26T16:44:49.333Z,13.70
2017-10-26T16:50:09.807Z,13.50
2017-10-26T16:52:37.335Z,13.50
2017-10-26T16:55:04.908Z,13.50
2017-10-26T16:57:32.525Z,13.40
2017-10-26T17:00:00.091Z,13.40
2017-10-26T17:02:27.660Z,13.30
2017-10-26T17:04:55.226Z,13.30
2017-10-26T17:07:22.783Z,13.30
2017-10-26T17:09:50.366Z,13.30
2017-10-26T17:12:17.922Z,13.30
2017-10-26T17:14:45.464Z,13.30
2017-10-26T17:17:13.050Z,13.30
2017-10-26T17:19:40.652Z,13.20
2017-10-26T17:22:08.222Z,13.20
2017-10-26T17:24:35.802Z,13.20
2017-10-26T17:27:03.335Z,13.20
2017-10-26T17:29:30.909Z,13.20
2017-10-26T17:31:58.486Z,13.10
2017-10-26T17:34:26.258Z,13.10
2017-10-26T17:36:53.820Z,13.10
2017-10-26T17:39:21.376Z,13.10
2017-10-26T17:41:48.935Z,13.10
2017-10-26T17:44:16.509Z,13.10
2017-10-26T17:46:44.052Z,13.20
2017-10-26T17:49:11.681Z,13.20
2017-10-26T17:51:39.298Z,13.20
2017-10-26T17:54:10.267Z,13.20
2017-10-26T17:56:37.886Z,13.10
2017-10-26T17:59:05.523Z,13.10
2017-10-26T18:01:33.156Z,13.10
2017-10-26T18:04:00.776Z,13.10
2017-10-26T18:06:28.386Z,13.10
2017-10-26T18:08:55.962Z,13.10
2017-10-26T18:11:23.567Z,13.10
2017-10-26T18:13:51.968Z,13.00
2017-10-26T18:16:20.321Z,13.00
2017-10-26T18:18:47.888Z,13.00
2017-10-26T18:21:25.806Z,13.00
2017-10-26T18:23:53.379Z,13.00
2017-10-26T18:26:20.919Z,13.00
2017-10-26T18:28:54.186Z,13.00
2017-10-26T18:31:25.628Z,13.10
2017-10-26T18:33:53.290Z,13.00
2017-10-26T18:36:20.859Z,13.00
2017-10-26T18:38:48.441Z,13.00
2017-10-26T18:41:16.810Z,13.00
2017-10-26T18:43:44.403Z,12.90
2017-10-26T18:46:11.998Z,12.90
2017-10-26T18:48:39.592Z,12.90
2017-10-26T18:51:07.192Z,12.90
2017-10-26T18:53:34.762Z,12.90
2017-10-26T18:56:02.330Z,12.80
2017-10-26T18:58:29.858Z,12.90
2017-10-26T19:00:57.396Z,12.80
2017-10-26T19:03:25.035Z,12.80
2017-10-26T19:05:53.382Z,12.70
2017-10-26T19:08:20.972Z,12.70
2017-10-26T19:10:48.556Z,12.70
2017-10-26T19:13:16.176Z,12.70
2017-10-26T19:15:43.760Z,12.70
2017-10-26T19:18:11.331Z,12.70
2017-10-26T19:20:39.748Z,12.80
2017-10-26T19:23:07.308Z,12.70
2017-10-26T19:25:34.985Z,12.80
2017-10-26T19:28:02.607Z,12.90
2017-10-26T19:30:30.246Z,12.90
2017-10-26T19:32:57.916Z,12.90
2017-10-26T19:35:25.542Z,12.90
2017-10-26T19:37:53.070Z,13.00
2017-10-26T19:40:22.291Z,13.00
2017-10-26T19:42:50.941Z,13.00
2017-10-26T19:45:18.485Z,13.00
2017-10-26T19:47:46.474Z,13.10
2017-10-26T19:50:14.079Z,13.10
2017-10-26T19:52:41.789Z,13.10
2017-10-26T19:55:09.507Z,13.10
2017-10-26T19:57:37.220Z,13.10
2017-10-26T20:00:04.934Z,13.10
2017-10-26T20:02:34.768Z,13.20
2017-10-26T20:05:02.567Z,13.20
2017-10-26T20:07:30.197Z,13.10
2017-10-26T20:09:57.806Z,13.10
2017-10-26T20:12:25.412Z,13.20
2017-10-26T20:14:53.021Z,13.20
2017-10-26T20:17:20.683Z,13.10
2017-10-26T20:19:48.355Z,13.20
2017-10-26T20:22:16.722Z,13.20
2017-10-26T20:24:44.327Z,13.10
2017-10-26T20:27:11.945Z,13.20
2017-10-26T20:29:39.515Z,13.30
2017-10-26T20:32:07.097Z,13.30
2017-10-26T20:34:34.697Z,13.30
2017-10-26T20:37:02.327Z,13.30
2017-10-26T20:39:29.910Z,13.30
2017-10-26T20:41:57.719Z,13.40
2017-10-26T20:44:25.357Z,13.40
2017-10-26T20:46:52.900Z,13.40
2017-10-26T20:49:26.231Z,13.40
2017-10-26T20:51:59.447Z,13.40
2017-10-26T20:54:32.570Z,13.40
2017-10-26T20:57:05.669Z,13.40
2017-10-26T20:59:38.894Z,13.40
2017-10-26T21:02:12.145Z,13.40
2017-10-26T21:04:45.408Z,13.40
2017-10-26T21:07:18.744Z,13.40
2017-10-26T21:09:46.319Z,13.40
2017-10-26T21:15:20.038Z,13.40
2017-10-26T21:17:47.719Z,13.40
2017-10-26T21:20:15.315Z,13.40
2017-10-26T21:22:42.865Z,13.30
2017-10-26T21:25:10.436Z,13.30
2017-10-26T21:27:38.742Z,13.30
2017-10-26T21:30:06.296Z,13.20
2017-10-26T21:32:33.860Z,13.30
2017-10-26T21:35:01.404Z,13.40
2017-10-26T21:37:28.979Z,13.30
2017-10-26T21:39:57.283Z,13.30
2017-10-26T21:42:25.634Z,13.30
2017-10-26T21:44:53.196Z,13.20
2017-10-26T21:47:20.730Z,13.20
2017-10-26T21:49:48.322Z,13.20
2017-10-26T21:52:15.866Z,13.20
2017-10-26T21:54:43.413Z,13.20
2017-10-26T21:57:10.970Z,13.20
2017-10-26T21:59:38.562Z,13.20
2017-10-26T22:02:06.099Z,13.20
2017-10-26T22:04:33.662Z,13.10
2017-10-26T22:07:01.225Z,13.10
2017-10-26T22:09:28.756Z,13.10
2017-10-26T22:11:57.053Z,13.10
2017-10-26T22:14:24.576Z,13.00
2017-10-26T22:16:52.097Z,13.00
2017-10-26T22:19:19.602Z,13.00
2017-10-26T22:21:47.913Z,13.00
2017-10-26T22:24:15.425Z,13.00
2017-10-26T22:26:42.934Z,13.00
2017-10-26T22:29:10.471Z,13.00
2017-10-26T22:31:38.741Z,13.00
2017-10-26T22:34:07.033Z,13.00
2017-10-26T22:36:34.566Z,12.90
2017-10-26T22:39:02.850Z,12.90
2017-10-26T22:41:31.129Z,13.00
2017-10-26T22:43:59.436Z,13.00
2017-10-26T22:46:26.950Z,12.90
2017-10-26T22:48:55.261Z,12.90
2017-10-26T22:51:22.779Z,12.80
2017-10-26T22:53:50.805Z,12.80
2017-10-26T22:56:18.325Z,12.80
2017-10-26T22:58:45.846Z,12.80
2017-10-26T23:01:13.373Z,12.70
2017-10-26T23:03:40.885Z,12.70
2017-10-26T23:06:08.426Z,12.70
2017-10-26T23:08:35.954Z,12.70
2017-10-26T23:11:03.493Z,12.70
2017-10-26T23:13:31.004Z,12.60
2017-10-26T23:15:58.536Z,12.60
2017-10-26T23:18:26.036Z,12.60
2017-10-26T23:20:53.565Z,12.60
2017-10-26T23:23:21.078Z,12.60
2017-10-26T23:25:48.592Z,12.60
2017-10-26T23:28:16.121Z,12.60
2017-10-26T23:30:43.633Z,12.50
2017-10-26T23:33:11.934Z,12.40
2017-10-26T23:35:39.448Z,12.40
2017-10-26T23:38:06.976Z,12.50
2017-10-26T23:40:34.496Z,12.40
2017-10-26T23:43:02.777Z,12.50
2017-10-26T23:45:30.308Z,12.40
2017-10-26T23:47:57.822Z,12.50
2017-10-26T23:50:25.356Z,12.60
2017-10-26T23:52:52.868Z,12.60
2017-10-26T23:55:20.398Z,12.60
2017-10-26T23:57:47.900Z,12.60
